Time;durP1;ratioP1;P1;durP2;ratioP2;P2;SDS_P1;SDS_P2;PMS_P1;PMS_P2;Temp;Humidity;BMP_temperature;BMP_pressure;BME280_temperature;BME280_humidity;BME280_pressure;Samples;Min_cycle;Max_cycle;Signal;HPM_P1;HPM_P2
2022/05/06 00:01:35;;;;;;;226.77;48.97;;;10.30;99.90;;;;;;5074446;28;20226;-83
2022/05/06 00:04:03;;;;;;;170.93;44.40;;;10.30;99.90;;;;;;5077723;28;20190;-87
2022/05/06 00:06:30;;;;;;;173.07;48.10;;;10.20;99.90;;;;;;5078994;28;20193;-91
2022/05/06 00:08:57;;;;;;;130.37;43.53;;;10.20;99.90;;;;;;5075752;28;20212;-85
2022/05/06 00:11:24;;;;;;;143.37;47.60;;;10.30;99.90;;;;;;5078821;28;20585;-87
2022/05/06 00:13:52;;;;;;;177.17;48.47;;;10.30;99.90;;;;;;5078228;28;20192;-86
2022/05/06 00:16:21;;;;;;;147.30;44.73;;;10.20;99.90;;;;;;5076406;28;20226;-88
2022/05/06 00:18:48;;;;;;;207.47;43.70;;;10.10;99.90;;;;;;5076116;28;20212;-84
2022/05/06 00:21:15;;;;;;;148.60;44.23;;;10.00;99.90;;;;;;5076527;28;20200;-84
2022/05/06 00:23:43;;;;;;;105.57;45.77;;;10.10;99.90;;;;;;5073940;28;20202;-83
2022/05/06 00:26:10;;;;;;;140.47;43.80;;;10.20;99.90;;;;;;5072997;28;20194;-82
2022/05/06 00:28:37;;;;;;;94.13;45.00;;;10.40;99.90;;;;;;5073275;28;20237;-82
2022/05/06 00:31:04;;;;;;;103.17;43.03;;;10.40;99.90;;;;;;5073462;28;20627;-82
2022/05/06 00:33:33;;;;;;;109.93;42.47;;;10.50;99.90;;;;;;5073169;28;20683;-82
2022/05/06 00:36:01;;;;;;;97.83;43.30;;;10.60;99.90;;;;;;5073378;28;20680;-82
2022/05/06 00:38:29;;;;;;;89.63;41.33;;;10.70;99.90;;;;;;5073007;28;20194;-82
2022/05/06 00:40:56;;;;;;;94.57;53.55;;;10.80;99.90;;;;;;5072047;28;20767;-80
2022/05/06 00:43:24;;;;;;;93.97;42.37;;;10.90;99.90;;;;;;5073085;28;20197;-80
2022/05/06 00:45:53;;;;;;;76.90;39.20;;;11.10;99.90;;;;;;5073178;28;20239;-81
2022/05/06 00:48:22;;;;;;;90.23;38.13;;;11.00;99.90;;;;;;5073562;28;20230;-78
2022/05/06 00:50:51;;;;;;;103.07;40.37;;;11.00;99.90;;;;;;5072978;28;20206;-79
2022/05/06 00:53:19;;;;;;;123.57;38.57;;;11.20;99.90;;;;;;5073186;28;20213;-79
2022/05/06 00:55:47;;;;;;;93.53;37.67;;;11.10;99.90;;;;;;5072480;28;20216;-79
2022/05/06 00:58:15;;;;;;;85.07;39.67;;;11.00;99.90;;;;;;5073493;28;20547;-85
2022/05/06 01:00:43;;;;;;;105.97;44.65;;;11.00;99.90;;;;;;5074253;28;20420;-83
2022/05/06 01:03:12;;;;;;;77.73;38.27;;;11.00;99.90;;;;;;5074782;28;20226;-83
2022/05/06 01:05:39;;;;;;;99.63;37.17;;;11.00;99.90;;;;;;5074474;28;20259;-85
2022/05/06 01:08:09;;;;;;;92.03;40.07;;;10.90;99.90;;;;;;5074488;28;20233;-81
2022/05/06 01:10:38;;;;;;;82.83;39.53;;;10.90;99.90;;;;;;5075170;28;20202;-81
2022/05/06 01:13:05;;;;;;;78.10;40.23;;;11.00;99.90;;;;;;5074710;28;20229;-90
2022/05/06 01:15:32;;;;;;;73.60;39.90;;;10.90;99.90;;;;;;5075052;28;20201;-86
2022/05/06 01:17:59;;;;;;;70.77;38.00;;;10.90;99.90;;;;;;5075731;28;20201;-93
2022/05/06 01:20:27;;;;;;;75.97;38.57;;;10.90;99.90;;;;;;5075054;28;20213;-92
2022/05/06 01:22:59;;;;;;;104.95;52.90;;;11.00;99.90;;;;;;5073082;28;20781;-93
2022/05/06 01:25:27;;;;;;;89.33;43.03;;;11.00;99.90;;;;;;5074105;28;20190;-93
2022/05/06 01:28:00;;;;;;;99.07;42.87;;;11.00;99.90;;;;;;5073504;28;20758;-91
2022/05/06 01:30:34;;;;;;;97.07;42.83;;;11.00;99.90;;;;;;5073478;28;20264;-91
2022/05/06 01:33:06;;;;;;;80.97;41.27;;;10.90;99.90;;;;;;5073690;28;20221;-88
2022/05/06 01:35:38;;;;;;;97.23;39.57;;;10.80;99.90;;;;;;5073688;28;20205;-89
2022/05/06 01:38:07;;;;;;;108.63;41.33;;;10.60;99.90;;;;;;5076938;28;20206;-89
2022/05/06 01:40:40;;;;;;;86.87;39.10;;;10.50;99.90;;;;;;5077267;28;20649;-89
2022/05/06 01:43:16;;;;;;;186.43;47.05;;;10.60;99.90;;;;;;5076959;28;20443;-92
2022/05/06 01:45:44;;;;;;;100.80;36.97;;;10.70;99.90;;;;;;5077303;28;20208;-92
2022/05/06 01:48:13;;;;;;;104.60;41.73;;;10.60;99.90;;;;;;5076894;28;20213;-94
2022/05/06 01:50:42;;;;;;;100.47;43.23;;;10.60;99.90;;;;;;5076960;28;20608;-92
2022/05/06 01:53:14;;;;;;;113.37;42.47;;;10.60;99.90;;;;;;5076923;28;20201;-92
2022/05/06 01:55:47;;;;;;;135.73;42.27;;;10.60;99.90;;;;;;5077236;28;20235;-88
2022/05/06 01:58:14;;;;;;;168.00;42.70;;;10.80;99.90;;;;;;5077169;28;20221;-93
2022/05/06 02:00:44;;;;;;;163.30;44.47;;;10.80;99.90;;;;;;5077129;28;20205;-91
2022/05/06 02:05:16;;;;;;;176.97;47.10;;;10.70;99.90;;;;;;5077158;28;20222;-91
2022/05/06 02:05:57;;;;;;;145.47;43.70;;;10.70;99.90;;;;;;5076837;28;20281;-93
2022/05/06 02:08:26;;;;;;;156.97;45.57;;;10.80;99.90;;;;;;5076531;28;20263;-91
2022/05/06 02:10:52;;;;;;;106.67;41.93;;;10.90;99.90;;;;;;5076857;28;20205;-86
2022/05/06 02:13:20;;;;;;;115.43;43.37;;;11.00;99.90;;;;;;5076829;28;20209;-90
2022/05/06 02:15:53;;;;;;;122.63;44.40;;;10.90;99.90;;;;;;5076587;28;20243;-88
2022/05/06 02:18:26;;;;;;;137.63;44.90;;;10.90;99.90;;;;;;5076582;28;20202;-92
2022/05/06 02:20:54;;;;;;;157.37;48.23;;;10.90;99.90;;;;;;5076852;28;20190;-90
2022/05/06 02:23:26;;;;;;;128.73;47.73;;;11.00;99.90;;;;;;5076800;28;20198;-91
2022/05/06 02:25:59;;;;;;;164.73;48.27;;;11.00;99.90;;;;;;5076531;28;20666;-91
2022/05/06 02:28:31;;;;;;;131.00;47.17;;;10.70;99.90;;;;;;5076518;28;20221;-92
2022/05/06 02:33:50;;;;;;;256.87;51.13;;;10.60;99.90;;;;;;5058740;28;20197;-92
2022/05/06 02:36:17;;;;;;;248.63;52.80;;;10.60;99.90;;;;;;5076391;28;20207;-91
2022/05/06 02:38:45;;;;;;;221.90;53.93;;;10.70;99.90;;;;;;5076135;28;20194;-90
2022/05/06 02:41:14;;;;;;;167.83;56.13;;;10.80;99.90;;;;;;5075889;28;20210;-90
2022/05/06 02:43:43;;;;;;;162.93;53.73;;;10.90;99.90;;;;;;5076231;28;20213;-89
2022/05/06 02:46:13;;;;;;;212.75;53.30;;;10.80;99.90;;;;;;5076390;28;20434;-89
2022/05/06 02:48:40;;;;;;;211.93;50.57;;;10.60;99.90;;;;;;5075502;28;20595;-91
2022/05/06 02:51:08;;;;;;;241.17;53.03;;;10.60;99.90;;;;;;5076097;28;20202;-93
2022/05/06 02:53:40;;;;;;;247.90;53.27;;;10.50;99.90;;;;;;5075953;28;20204;-92
2022/05/06 02:56:14;;;;;;;341.00;56.63;;;10.60;99.90;;;;;;5076497;28;20537;-89
2022/05/06 02:58:47;;;;;;;221.53;53.20;;;10.70;99.90;;;;;;5076551;28;20198;-94
2022/05/06 03:01:15;;;;;;;252.50;55.60;;;10.60;99.90;;;;;;5076503;28;20202;-94
2022/05/06 03:03:48;;;;;;;292.53;56.53;;;10.60;99.90;;;;;;5076038;28;20190;-93
2022/05/06 03:06:20;;;;;;;191.80;58.77;;;10.60;99.90;;;;;;5076012;28;20535;-93
2022/05/06 03:08:53;;;;;;;248.27;55.83;;;10.60;99.90;;;;;;5075538;28;20613;-92
2022/05/06 03:11:22;;;;;;;255.43;56.87;;;10.70;99.90;;;;;;5076034;28;20194;-94
2022/05/06 03:13:56;;;;;;;203.97;56.13;;;10.70;99.90;;;;;;5076093;28;20202;-93
2022/05/06 03:16:29;;;;;;;227.53;52.70;;;10.50;99.90;;;;;;5075601;28;20191;-92
2022/05/06 03:19:01;;;;;;;175.37;51.63;;;10.50;99.90;;;;;;5075726;28;20197;-94
2022/05/06 03:21:38;;;;;;;213.63;52.07;;;10.40;99.90;;;;;;5075324;28;20217;-91
2022/05/06 03:24:11;;;;;;;237.87;53.07;;;10.40;99.90;;;;;;5075848;28;20190;-94
2022/05/06 03:26:40;;;;;;;188.83;48.60;;;10.40;99.90;;;;;;5076083;28;20289;-84
2022/05/06 03:29:08;;;;;;;236.23;50.53;;;10.30;99.90;;;;;;5075361;28;20232;-93
2022/05/06 03:31:40;;;;;;;168.70;50.33;;;10.20;99.90;;;;;;5075067;28;20194;-91
2022/05/06 03:34:08;;;;;;;182.23;49.07;;;10.30;99.90;;;;;;5075527;28;20194;-90
2022/05/06 03:36:41;;;;;;;166.63;52.80;;;10.40;99.90;;;;;;5075430;28;20600;-90
2022/05/06 03:39:14;;;;;;;199.63;54.20;;;10.60;99.90;;;;;;5075079;28;20209;-89
2022/05/06 03:41:44;;;;;;;162.93;51.03;;;10.60;99.90;;;;;;5074765;28;20205;-90
2022/05/06 03:44:17;;;;;;;198.67;51.73;;;10.60;99.90;;;;;;5075068;28;20208;-88
2022/05/06 03:46:46;;;;;;;217.60;46.97;;;10.50;99.90;;;;;;5075098;28;20202;-89
2022/05/06 03:49:19;;;;;;;188.83;49.70;;;10.50;99.90;;;;;;5074910;28;20213;-89
2022/05/06 03:51:50;;;;;;;155.73;50.40;;;10.40;99.90;;;;;;5074945;28;20205;-89
2022/05/06 03:54:23;;;;;;;174.93;51.83;;;10.50;99.90;;;;;;5075265;28;20644;-89
2022/05/06 03:56:57;;;;;;;200.53;49.77;;;10.30;99.90;;;;;;5075049;28;20323;-93
2022/05/06 03:59:30;;;;;;;256.00;49.70;;;10.20;99.90;;;;;;5074281;28;20190;-90
2022/05/06 04:02:00;;;;;;;205.93;54.03;;;10.30;99.90;;;;;;5075016;28;20217;-90
2022/05/06 04:04:28;;;;;;;202.67;51.13;;;10.30;99.90;;;;;;5073639;28;20201;-90
2022/05/06 04:06:55;;;;;;;201.03;53.70;;;10.40;99.90;;;;;;5075036;28;20247;-92
2022/05/06 04:09:26;;;;;;;378.57;56.33;;;10.40;99.90;;;;;;5074692;28;20236;-91
2022/05/06 04:11:56;;;;;;;198.63;58.67;;;10.40;99.90;;;;;;5074836;28;20227;-89
2022/05/06 04:14:27;;;;;;;154.77;50.83;;;10.40;99.90;;;;;;5075389;28;20190;-89
2022/05/06 04:16:55;;;;;;;158.27;52.43;;;10.50;99.90;;;;;;5074749;28;20201;-86
2022/05/06 04:19:27;;;;;;;255.07;53.33;;;10.50;99.90;;;;;;5074311;28;20205;-88
2022/05/06 04:24:42;;;;;;;180.67;50.90;;;10.50;99.90;;;;;;5074389;28;20193;-86
2022/05/06 04:27:08;;;;;;;164.50;50.20;;;10.50;99.90;;;;;;5074539;28;20630;-91
2022/05/06 04:29:39;;;;;;;160.77;47.93;;;10.40;99.90;;;;;;5073144;28;20237;-90
2022/05/06 04:32:07;;;;;;;252.63;46.73;;;10.50;99.90;;;;;;5074074;28;20213;-91
2022/05/06 04:34:34;;;;;;;234.23;52.97;;;10.40;99.90;;;;;;5074230;28;20194;-91
2022/05/06 04:37:07;;;;;;;239.60;52.70;;;10.50;99.90;;;;;;5074393;28;20531;-90
2022/05/06 04:39:40;;;;;;;250.57;48.83;;;10.40;99.90;;;;;;5074516;28;20281;-88
2022/05/06 04:42:12;;;;;;;337.93;51.10;;;10.30;99.90;;;;;;5074073;28;20202;-91
2022/05/06 04:44:41;;;;;;;188.20;51.63;;;10.30;99.90;;;;;;5073829;28;20202;-90
2022/05/06 04:47:08;;;;;;;156.77;49.63;;;10.20;99.90;;;;;;5073888;28;20209;-91
2022/05/06 04:49:35;;;;;;;166.17;50.97;;;10.20;99.90;;;;;;5074260;28;20209;-89
2022/05/06 04:52:02;;;;;;;196.93;50.03;;;10.20;99.90;;;;;;5074724;28;20637;-87
2022/05/06 04:54:29;;;;;;;209.63;50.87;;;10.20;99.90;;;;;;5074159;28;20220;-87
2022/05/06 04:56:58;;;;;;;264.35;62.17;;;10.40;99.90;;;;;;5073815;28;20435;-88
2022/05/06 04:59:28;;;;;;;219.80;55.70;;;10.70;99.90;;;;;;5074279;28;20205;-87
2022/05/06 05:01:58;;;;;;;142.87;51.50;;;10.60;99.90;;;;;;5082001;28;20214;-87
2022/05/06 05:04:31;;;;;;;131.73;47.83;;;10.60;99.90;;;;;;5073879;28;20206;-87
2022/05/06 05:07:00;;;;;;;210.30;46.77;;;10.40;99.90;;;;;;5073644;28;20205;-87
2022/05/06 05:09:30;;;;;;;184.73;47.93;;;10.50;99.90;;;;;;5073784;28;20761;-87
2022/05/06 05:12:03;;;;;;;182.43;49.50;;;10.50;99.90;;;;;;5077896;28;20216;-87
2022/05/06 05:14:34;;;;;;;164.90;48.07;;;10.80;99.90;;;;;;5077820;28;20216;-85
2022/05/06 05:17:03;;;;;;;135.47;46.40;;;10.80;99.90;;;;;;5077508;28;20210;-86
2022/05/06 05:19:30;;;;;;;208.50;57.92;;;10.80;99.90;;;;;;5076860;28;20442;-87
2022/05/06 05:21:57;;;;;;;124.80;44.63;;;10.90;99.90;;;;;;5077612;28;20218;-85
2022/05/06 05:24:24;;;;;;;127.13;44.83;;;10.80;99.90;;;;;;5077442;28;20194;-85
2022/05/06 05:26:55;;;;;;;121.83;44.53;;;10.80;99.90;;;;;;5077201;28;20264;-85
2022/05/06 05:29:23;;;;;;;138.03;45.47;;;10.90;99.90;;;;;;5077047;28;20230;-85
2022/05/06 05:31:51;;;;;;;134.93;45.20;;;11.10;99.90;;;;;;5077531;28;20265;-86
2022/05/06 05:34:19;;;;;;;137.40;45.03;;;11.10;99.90;;;;;;5077364;28;20209;-84
2022/05/06 05:36:49;;;;;;;101.83;40.73;;;11.20;99.90;;;;;;5077010;28;20190;-85
2022/05/06 05:39:17;;;;;;;92.93;40.87;;;11.10;99.90;;;;;;5077249;28;20198;-86
2022/05/06 05:41:46;;;;;;;100.40;42.00;;;11.20;99.90;;;;;;5077065;28;20206;-86
2022/05/06 05:49:46;;;;;;;111.67;45.20;;;11.30;99.90;;;;;;5077302;28;20220;-89
2022/05/06 05:52:13;;;;;;;101.83;42.63;;;11.20;99.90;;;;;;5077566;28;20197;-89
2022/05/06 05:54:40;;;;;;;94.43;40.87;;;11.40;99.90;;;;;;5077470;28;20221;-89
2022/05/06 05:57:08;;;;;;;90.43;40.70;;;11.60;99.90;;;;;;5077362;28;20205;-90
2022/05/06 05:59:41;;;;;;;90.33;40.10;;;11.60;99.90;;;;;;5077276;28;20198;-88
2022/05/06 06:02:14;;;;;;;84.93;40.67;;;11.50;99.90;;;;;;5077235;28;20221;-88
2022/05/06 06:04:42;;;;;;;97.10;50.43;;;11.60;99.90;;;;;;5076067;28;20447;-89
2022/05/06 06:07:11;;;;;;;89.70;43.93;;;11.90;99.90;;;;;;5077476;28;20450;-90
2022/05/06 06:09:42;;;;;;;79.40;39.43;;;12.00;99.90;;;;;;5077244;28;20234;-88
2022/05/06 06:12:17;;;;;;;85.57;41.30;;;12.00;99.90;;;;;;5088432;28;20187;-90
2022/05/06 06:14:43;;;;;;;84.17;42.50;;;11.80;99.90;;;;;;5076677;28;20210;-89
2022/05/06 06:17:16;;;;;;;92.47;44.33;;;11.80;99.90;;;;;;5093832;28;20201;-89
2022/05/06 06:19:43;;;;;;;86.33;42.57;;;11.70;99.90;;;;;;5080345;28;20214;-90
2022/05/06 06:22:17;;;;;;;84.90;41.60;;;11.60;99.90;;;;;;5082125;28;20202;-90
2022/05/06 06:24:56;;;;;;;91.20;43.93;;;11.80;99.90;;;;;;5077096;28;20199;-91
2022/05/06 06:27:25;;;;;;;93.03;51.45;;;12.00;99.90;;;;;;5075179;28;20427;-88
2022/05/06 06:29:53;;;;;;;91.30;45.23;;;12.00;99.90;;;;;;5076804;28;20224;-90
2022/05/06 06:32:25;;;;;;;94.23;42.83;;;12.00;99.90;;;;;;5078017;28;20678;-88
2022/05/06 06:34:55;;;;;;;94.57;43.33;;;12.00;99.90;;;;;;5079923;28;20198;-89
2022/05/06 06:37:27;;;;;;;90.93;42.30;;;11.80;99.90;;;;;;5081346;28;20604;-88
2022/05/06 06:39:54;;;;;;;95.70;42.80;;;11.90;99.90;;;;;;5076381;28;20199;-89
2022/05/06 06:42:27;;;;;;;101.77;44.60;;;12.10;99.90;;;;;;5076000;28;20203;-88
2022/05/06 06:44:55;;;;;;;115.00;47.57;;;12.10;99.90;;;;;;5076510;28;20210;-91
2022/05/06 06:47:21;;;;;;;111.50;47.07;;;12.10;99.90;;;;;;5076479;28;20206;-88
2022/05/06 06:49:48;;;;;;;105.73;45.30;;;11.90;99.90;;;;;;5075946;28;20228;-92
2022/05/06 06:52:18;;;;;;;104.27;45.23;;;11.90;99.90;;;;;;5076502;28;20596;-87
2022/05/06 06:54:52;;;;;;;95.73;42.97;;;11.80;99.90;;;;;;5076731;28;20650;-86
2022/05/06 06:57:20;;;;;;;107.30;46.03;;;11.70;99.90;;;;;;5076133;28;20556;-88
2022/05/06 06:59:54;;;;;;;103.07;42.93;;;11.60;99.90;;;;;;5075975;28;20202;-93
2022/05/06 07:02:22;;;;;;;95.53;39.83;;;11.50;99.90;;;;;;5082724;28;20224;-90
2022/05/06 07:04:51;;;;;;;94.00;40.93;;;11.60;99.90;;;;;;5085352;28;20637;-90
2022/05/06 07:12:55;;;;;;;110.07;52.40;;;11.50;99.90;;;;;;5084866;28;20896;-88
2022/05/06 07:15:29;;;;;;;103.10;45.27;;;11.70;99.90;;;;;;5086538;28;20198;-89
2022/05/06 07:17:58;;;;;;;104.73;44.83;;;11.60;99.90;;;;;;5083795;28;20286;-86
2022/05/06 07:20:28;;;;;;;96.00;43.40;;;11.80;99.90;;;;;;5085857;28;20665;-88
2022/05/06 07:22:58;;;;;;;100.90;43.50;;;12.10;99.90;;;;;;5096145;28;20251;-89
2022/05/06 07:25:32;;;;;;;94.30;41.53;;;12.30;99.90;;;;;;5095977;28;20562;-89
2022/05/06 07:28:02;;;;;;;92.63;40.80;;;12.30;99.90;;;;;;5095914;28;20204;-92
2022/05/06 07:30:35;;;;;;;83.23;37.30;;;12.30;99.90;;;;;;5092180;28;20230;-87
2022/05/06 07:33:05;;;;;;;85.50;40.43;;;12.30;99.90;;;;;;5079342;28;20227;-86
2022/05/06 07:35:38;;;;;;;94.80;50.45;;;12.40;99.90;;;;;;5076988;28;20425;-89
2022/05/06 07:38:06;;;;;;;89.00;44.10;;;12.50;99.90;;;;;;5083909;28;20196;-85
2022/05/06 07:40:34;;;;;;;83.37;41.60;;;12.80;99.90;;;;;;5094359;28;20211;-85
2022/05/06 07:43:01;;;;;;;75.57;38.13;;;12.90;99.90;;;;;;5094667;28;20207;-85
2022/05/06 07:45:28;;;;;;;66.40;35.83;;;12.90;99.90;;;;;;5082606;28;20200;-85
2022/05/06 07:47:55;;;;;;;71.03;36.47;;;12.90;99.90;;;;;;5083842;28;20197;-85
2022/05/06 07:50:22;;;;;;;67.83;36.20;;;12.70;99.90;;;;;;5083514;28;20235;-86
2022/05/06 07:52:50;;;;;;;69.23;35.73;;;12.70;99.90;;;;;;5083001;28;20273;-85
2022/05/06 07:55:19;;;;;;;65.97;36.23;;;12.70;99.90;;;;;;5076281;28;20203;-85
2022/05/06 07:57:50;;;;;;;69.22;39.85;;;12.70;99.90;;;;;;5079193;28;20420;-86
2022/05/06 08:00:24;;;;;;;55.10;32.87;;;13.00;99.90;;;;;;5089953;28;20191;-87
2022/05/06 08:05:39;;;;;;;57.97;33.90;;;13.10;99.90;;;;;;5074308;28;20713;-87
2022/05/06 08:08:07;;;;;;;63.77;34.30;;;13.10;99.90;;;;;;5074342;28;20690;-86
2022/05/06 08:10:41;;;;;;;61.33;33.97;;;13.10;99.90;;;;;;5074160;28;20244;-87
2022/05/06 08:13:09;;;;;;;56.33;32.23;;;13.20;99.90;;;;;;5074673;28;20208;-86
2022/05/06 08:15:39;;;;;;;56.63;32.17;;;13.40;99.90;;;;;;5091451;28;20192;-85
2022/05/06 08:18:09;;;;;;;54.43;31.17;;;13.50;99.90;;;;;;5094476;28;20205;-85
2022/05/06 08:20:41;;;;;;;51.60;30.67;;;13.40;99.90;;;;;;5094582;28;20649;-87
2022/05/06 08:23:10;;;;;;;54.03;31.27;;;13.70;99.90;;;;;;5094440;28;20648;-86
2022/05/06 08:25:43;;;;;;;59.63;34.33;;;13.70;99.90;;;;;;5085631;28;20209;-86
2022/05/06 08:28:19;;;;;;;59.90;34.20;;;13.90;99.90;;;;;;5092150;28;20565;-86
2022/05/06 08:30:47;;;;;;;64.33;34.73;;;14.10;99.90;;;;;;5094256;28;20223;-86
2022/05/06 08:33:14;;;;;;;59.57;34.40;;;14.40;99.90;;;;;;5091158;28;20200;-87
2022/05/06 08:35:47;;;;;;;55.00;32.80;;;14.50;99.90;;;;;;5085240;28;20193;-87
2022/05/06 08:38:17;;;;;;;55.40;31.47;;;14.60;99.90;;;;;;5082121;28;20196;-88
2022/05/06 08:40:44;;;;;;;56.97;32.73;;;14.90;99.90;;;;;;5093903;28;20216;-88
2022/05/06 08:43:14;;;;;;;55.87;32.07;;;14.70;99.90;;;;;;5090633;28;20197;-88
2022/05/06 08:51:31;;;;;;;52.47;30.50;;;14.60;99.90;;;;;;5088673;28;20583;-89
2022/05/06 08:53:58;;;;;;;50.53;30.27;;;14.90;99.90;;;;;;5084657;28;20203;-90
2022/05/06 08:56:25;;;;;;;52.70;30.67;;;15.00;99.90;;;;;;5094650;28;20193;-89
2022/05/06 08:58:52;;;;;;;46.00;28.63;;;15.20;99.90;;;;;;5095109;28;20205;-91
2022/05/06 09:01:25;;;;;;;46.33;27.33;;;15.00;99.90;;;;;;5098253;28;20244;-92
2022/05/06 09:03:55;;;;;;;45.93;27.63;;;15.10;99.90;;;;;;5095738;28;20284;-91
2022/05/06 09:06:24;;;;;;;51.97;30.13;;;15.40;99.90;;;;;;5100772;28;20213;-89
2022/05/06 09:08:52;;;;;;;45.97;28.60;;;15.70;99.90;;;;;;5095835;28;20225;-91
2022/05/06 09:12:40;;;;;;;49.00;29.73;;;15.90;99.90;;;;;;5094599;28;20225;-89
2022/05/06 09:14:08;;;;;;;48.93;27.77;;;15.80;99.90;;;;;;5095677;28;20260;-91
2022/05/06 09:16:44;;;;;;;45.67;28.03;;;15.80;99.90;;;;;;5094238;28;20649;-90
2022/05/06 09:19:13;;;;;;;50.47;27.93;;;15.80;99.90;;;;;;5092927;28;20652;-89
2022/05/06 09:21:41;;;;;;;47.63;28.27;;;16.10;99.90;;;;;;5093885;28;20206;-90
2022/05/06 09:24:19;;;;;;;86.07;29.47;;;16.40;99.90;;;;;;5090111;28;20251;-88
2022/05/06 09:27:00;;;;;;;89.07;27.20;;;16.50;99.90;;;;;;5083280;28;20295;-90
2022/05/06 09:29:35;;;;;;;49.30;27.73;;;16.50;99.90;;;;;;5073542;28;20610;-89
2022/05/06 09:32:31;;;;;;;46.87;27.53;;;16.80;99.90;;;;;;5073831;28;20204;-90
2022/05/06 09:35:13;;;;;;;42.50;25.27;;;17.00;99.90;;;;;;5073801;28;20221;-89
2022/05/06 09:37:43;;;;;;;38.47;24.43;;;16.60;99.90;;;;;;5074591;28;20651;-91
2022/05/06 09:40:12;;;;;;;48.07;25.03;;;16.40;99.90;;;;;;5076474;28;20205;-92
2022/05/06 09:42:40;;;;;;;41.17;22.80;;;16.40;99.90;;;;;;5079391;28;20208;-90
2022/05/06 09:45:09;;;;;;;38.97;22.90;;;16.50;99.90;;;;;;5092857;28;20197;-87
2022/05/06 09:47:36;;;;;;;40.40;22.17;;;17.00;99.90;;;;;;5083707;28;20197;-88
2022/05/06 09:50:11;;;;;;;35.53;22.10;;;17.10;99.90;;;;;;5080678;28;20237;-84
2022/05/06 09:52:40;;;;;;;36.28;23.42;;;17.00;99.90;;;;;;5072409;28;20435;-90
2022/05/06 09:55:10;;;;;;;37.13;21.43;;;17.00;99.90;;;;;;5082125;28;20237;-89
2022/05/06 09:57:45;;;;;;;32.07;19.93;;;17.10;99.90;;;;;;5097048;28;20207;-89
2022/05/06 10:00:18;;;;;;;29.17;17.67;;;17.10;99.90;;;;;;5102873;28;20261;-92
2022/05/06 10:02:45;;;;;;;31.03;17.97;;;17.30;99.90;;;;;;5103217;28;20232;-91
2022/05/06 10:05:13;;;;;;;19.63;13.23;;;17.40;99.90;;;;;;5102454;28;20205;-93
2022/05/06 10:07:44;;;;;;;22.83;15.53;;;17.50;99.90;;;;;;5102948;28;20209;-91
2022/05/06 10:10:19;;;;;;;27.40;16.80;;;17.40;99.90;;;;;;5108821;28;20231;-90
2022/05/06 10:12:52;;;;;;;31.73;19.80;;;17.40;99.90;;;;;;5095406;28;20197;-92
2022/05/06 10:15:22;;;;;;;37.67;22.50;;;17.40;99.90;;;;;;5085047;28;20203;-92
2022/05/06 10:17:50;;;;;;;35.17;21.80;;;17.60;99.90;;;;;;5084945;28;20198;-92
2022/05/06 10:20:59;;;;;;;29.90;20.80;;;17.70;99.90;;;;;;5091364;28;20209;-92
2022/05/06 10:23:45;;;;;;;28.43;18.83;;;17.70;99.90;;;;;;5099163;28;20216;-92
2022/05/06 10:26:45;;;;;;;28.17;18.17;;;17.80;99.90;;;;;;5101338;28;20244;-91
2022/05/06 10:32:53;;;;;;;33.33;18.50;;;17.80;99.90;;;;;;5087279;28;20218;-91
2022/05/06 10:35:36;;;;;;;33.40;20.20;;;17.80;99.90;;;;;;5092637;28;20712;-91
2022/05/06 10:38:17;;;;;;;33.37;20.33;;;17.70;99.90;;;;;;5092494;28;20205;-92
2022/05/06 10:40:54;;;;;;;31.07;19.10;;;17.90;99.90;;;;;;5097023;28;20215;-91
2022/05/06 10:43:52;;;;;;;26.87;17.83;;;18.10;99.90;;;;;;5089921;28;20222;-91
2022/05/06 10:46:37;;;;;;;27.93;14.97;;;18.30;99.90;;;;;;5100843;28;20207;-92
2022/05/06 10:49:52;;;;;;;25.90;17.52;;;18.20;99.90;;;;;;5097772;28;20446;-91
2022/05/06 10:52:47;;;;;;;24.70;15.17;;;18.00;99.90;;;;;;5086127;28;20211;-91
2022/05/06 10:55:19;;;;;;;25.23;15.60;;;17.90;99.90;;;;;;5078172;28;20618;-90
2022/05/06 10:58:03;;;;;;;20.80;14.27;;;18.10;99.90;;;;;;5083233;28;20619;-91
2022/05/06 11:00:33;;;;;;;22.73;14.33;;;18.40;99.90;;;;;;5077618;28;20207;-92
2022/05/06 11:03:00;;;;;;;19.40;14.03;;;18.50;99.90;;;;;;5096667;28;20292;-92
2022/05/06 11:05:30;;;;;;;23.83;14.23;;;18.60;99.90;;;;;;5079790;28;20223;-90
2022/05/06 11:08:06;;;;;;;24.37;15.10;;;18.80;99.90;;;;;;5077759;28;20563;-92
2022/05/06 11:10:34;;;;;;;21.87;13.93;;;19.20;99.90;;;;;;5084411;28;20228;-92
2022/05/06 11:13:09;;;;;;;18.20;12.27;;;19.50;99.90;;;;;;5081837;28;20212;-90
2022/05/06 11:15:41;;;;;;;11.67;9.13;;;19.80;99.90;;;;;;5081621;28;20219;-90
2022/05/06 11:18:08;;;;;;;10.20;7.83;;;19.70;99.90;;;;;;5079282;28;20198;-91
2022/05/06 11:20:40;;;;;;;10.50;8.70;;;19.20;99.90;;;;;;5080770;28;20210;-90
2022/05/06 11:23:09;;;;;;;11.33;8.87;;;19.40;99.90;;;;;;5081209;28;20210;-91
2022/05/06 11:25:44;;;;;;;10.93;8.93;;;19.70;99.90;;;;;;5081021;28;20202;-91
2022/05/06 11:28:21;;;;;;;14.83;10.53;;;19.60;99.90;;;;;;5078933;28;20439;-91
2022/05/06 11:30:54;;;;;;;12.73;9.83;;;19.50;99.90;;;;;;5078543;28;20215;-90
2022/05/06 11:33:24;;;;;;;12.10;9.20;;;19.40;99.90;;;;;;5081049;28;20201;-91
2022/05/06 11:35:53;;;;;;;10.63;8.70;;;19.40;99.90;;;;;;5086663;28;20292;-91
2022/05/06 11:38:31;;;;;;;10.50;8.80;;;19.20;99.90;;;;;;5096171;28;20193;-92
2022/05/06 11:41:06;;;;;;;10.57;8.83;;;19.20;99.90;;;;;;5089988;28;20216;-91
2022/05/06 11:43:35;;;;;;;12.67;8.27;;;19.20;99.90;;;;;;5089232;28;20209;-91
2022/05/06 11:48:47;;;;;;;9.80;8.77;;;19.20;99.90;;;;;;5106967;28;20441;-92
2022/05/06 11:51:18;;;;;;;9.47;8.07;;;19.40;99.90;;;;;;5091679;28;20459;-91
2022/05/06 11:53:46;;;;;;;8.47;7.57;;;19.60;99.90;;;;;;5094294;28;20201;-90
2022/05/06 11:56:20;;;;;;;10.23;8.03;;;19.80;99.90;;;;;;5094287;28;20217;-91
2022/05/06 11:58:57;;;;;;;8.77;7.83;;;19.80;99.90;;;;;;5107405;28;20213;-92
2022/05/06 12:01:32;;;;;;;9.87;7.97;;;19.70;99.90;;;;;;5086887;28;20243;-89
2022/05/06 12:04:06;;;;;;;9.40;8.23;;;19.90;99.90;;;;;;5086387;28;20204;-93
2022/05/06 12:06:38;;;;;;;11.50;8.70;;;19.70;99.90;;;;;;5082085;28;20261;-89
2022/05/06 12:09:09;;;;;;;11.45;9.18;;;19.90;99.90;;;;;;5080290;28;20890;-86
2022/05/06 12:11:36;;;;;;;9.97;8.93;;;19.90;99.90;;;;;;5078337;28;20224;-84
2022/05/06 12:14:08;;;;;;;11.33;9.27;;;19.90;99.90;;;;;;5078952;28;20216;-85
2022/05/06 12:16:36;;;;;;;11.47;8.03;;;19.80;99.90;;;;;;5087843;28;20297;-86
2022/05/06 12:19:03;;;;;;;11.20;8.70;;;20.00;99.90;;;;;;5085820;28;20667;-85
2022/05/06 12:21:33;;;;;;;13.37;8.77;;;20.10;99.90;;;;;;5084130;28;20201;-84
2022/05/06 12:24:02;;;;;;;13.63;9.83;;;20.10;99.90;;;;;;5083584;28;20212;-83
2022/05/06 12:26:34;;;;;;;10.17;8.60;;;20.00;99.90;;;;;;5079070;28;20669;-83
2022/05/06 12:29:02;;;;;;;11.10;8.77;;;20.20;99.90;;;;;;5089050;28;20198;-83
2022/05/06 12:31:32;;;;;;;12.07;9.00;;;20.50;99.90;;;;;;5084435;28;20787;-83
2022/05/06 12:34:09;;;;;;;11.83;9.43;;;20.70;99.90;;;;;;5078737;28;20197;-82
2022/05/06 12:36:36;;;;;;;11.30;9.00;;;20.80;99.90;;;;;;5081920;28;20264;-86
2022/05/06 12:39:18;;;;;;;12.50;9.70;;;20.80;99.90;;;;;;5088248;28;20651;-85
2022/05/06 12:41:46;;;;;;;10.80;9.63;;;20.60;99.90;;;;;;5088128;28;20296;-84
2022/05/06 12:44:21;;;;;;;13.50;9.77;;;20.60;99.90;;;;;;5088079;28;20212;-84
2022/05/06 12:46:50;;;;;;;13.67;9.13;;;20.60;99.90;;;;;;5090062;28;20197;-83
2022/05/06 12:52:05;;;;;;;8.90;7.50;;;20.80;99.90;;;;;;5087218;28;20262;-88
2022/05/06 12:54:32;;;;;;;10.70;7.40;;;21.10;99.90;;;;;;5100024;28;20228;-91
2022/05/06 12:56:59;;;;;;;7.43;6.73;;;21.00;99.90;;;;;;5088845;28;20206;-87
2022/05/06 12:59:26;;;;;;;9.50;7.87;;;21.40;99.90;;;;;;5093759;28;20234;-90
2022/05/06 13:01:55;;;;;;;8.97;8.07;;;21.40;99.90;;;;;;5087391;28;20278;-88
2022/05/06 13:04:23;;;;;;;8.87;7.53;;;21.20;99.90;;;;;;5090012;28;20212;-86
2022/05/06 13:06:50;;;;;;;9.00;8.10;;;21.40;99.90;;;;;;5086051;28;20561;-86
2022/05/06 13:09:17;;;;;;;8.47;7.77;;;21.20;99.90;;;;;;5081828;28;20209;-85
2022/05/06 13:11:44;;;;;;;7.77;6.87;;;21.40;99.90;;;;;;5081876;28;20236;-83
2022/05/06 13:14:10;;;;;;;6.80;6.20;;;21.70;99.90;;;;;;5083550;28;20201;-87
2022/05/06 13:16:38;;;;;;;7.10;6.40;;;21.70;99.90;;;;;;5081666;28;20254;-86
2022/05/06 13:19:09;;;;;;;9.33;7.07;;;21.40;99.90;;;;;;5081370;28;20211;-87